KYIP/YIP METAR and TAF weather

Enter ICAO airport designator
Station Type Date Time Source
KYIP METAR 2019/07/18 10:53 UTC NOAA

KYIP 181053Z 00000KT 10SM CLR 20/17 A2995 RMK AO2 SLP134 T02000172


Station Type Date Time Source
KYIP Decoded METAR 2019/07/18 10:53 UTC NOAA

WILLOW RUN AIRPORT, MI, United States (KYIP) 42-14N 083-32W 215M
Jul 18, 2019 - 06:53 AM EDT / 2019.07.18 1053 UTC
Wind: Calm:0
Visibility: 10 mile(s):0
Sky conditions: clear
Temperature: 68.0 F (20.0 C)
Dew Point: 63.0 F (17.2 C)
Relative Humidity: 83%
Pressure (altimeter): 29.95 in. Hg (1014 hPa)
ob: KYIP 181053Z 00000KT 10SM CLR 20/17 A2995 RMK AO2 SLP134 T02000172
cycle: 11

Station Type Date Time Source
KYIP TAF 2019/07/18 12:22 UTC NOAA

TAF KYIP 181120Z 1812/1912 18005KT P6SM BKN250
FM181700 20010KT P6SM SCT045 BKN150
FM182100 24008KT P6SM VCTS BKN040CB BKN080
FM190000 19008KT P6SM SCT080 BKN200
FM191000 20006KT 5SM BR SCT012 BKN200

Example: see airport list